createdAt,value
2022-09-09T00:00:15.172Z,1.10
2022-09-09T00:05:30.113Z,1.05
2022-09-09T00:10:40.557Z,1.02
2022-09-09T00:15:57.904Z,0.80
2022-09-09T00:21:09.413Z,0.98
2022-09-09T00:26:21.461Z,0.80
2022-09-09T00:31:32.568Z,1.00
2022-09-09T00:36:38.854Z,1.15
2022-09-09T00:42:09.441Z,0.90
2022-09-09T00:47:40.308Z,0.90
2022-09-09T00:53:00.113Z,1.00
2022-09-09T00:58:03.624Z,1.10
2022-09-09T01:03:37.250Z,1.00
2022-09-09T01:09:18.122Z,0.90
2022-09-09T01:14:40.889Z,0.93
2022-09-09T01:20:06.943Z,1.10
2022-09-09T01:26:33.168Z,0.90
2022-09-09T01:31:44.184Z,0.80
2022-09-09T01:36:55.687Z,1.02
2022-09-09T01:42:00.887Z,0.90
2022-09-09T01:47:06.273Z,0.98
2022-09-09T01:52:10.373Z,0.77
2022-09-09T01:57:25.730Z,0.90
2022-09-09T02:02:35.579Z,0.90
2022-09-09T02:07:51.921Z,0.80
2022-09-09T02:13:14.887Z,0.90
2022-09-09T02:18:28.547Z,0.93
2022-09-09T02:23:33.069Z,0.98
2022-09-09T02:28:43.150Z,0.98
2022-09-09T02:33:53.626Z,0.82
2022-09-09T02:38:57.452Z,0.80
2022-09-09T02:44:13.119Z,1.00
2022-09-09T02:49:25.856Z,0.80
2022-09-09T02:54:32.624Z,0.90
2022-09-09T02:59:42.766Z,0.98
2022-09-09T03:04:51.763Z,0.80
2022-09-09T03:09:55.992Z,0.90
2022-09-09T03:15:04.054Z,0.90
2022-09-09T03:20:10.214Z,0.87
2022-09-09T03:25:15.242Z,1.00
2022-09-09T03:30:20.848Z,0.90
2022-09-09T03:35:26.225Z,0.93
2022-09-09T03:40:29.713Z,0.80
2022-09-09T03:45:34.941Z,0.85
2022-09-09T03:50:38.506Z,0.90
2022-09-09T03:55:42.523Z,0.90
2022-09-09T04:00:57.447Z,1.00
2022-09-09T04:06:04.470Z,0.80
2022-09-09T04:11:09.664Z,0.90
2022-09-09T04:16:16.652Z,1.02
2022-09-09T04:21:22.342Z,0.90
2022-09-09T04:26:26.243Z,0.80
2022-09-09T04:31:31.781Z,0.90
2022-09-09T04:36:35.552Z,0.88
2022-09-09T04:41:41.754Z,0.90
2022-09-09T04:46:48.723Z,0.90
2022-09-09T04:51:52.879Z,0.98
2022-09-09T04:56:56.893Z,0.80
2022-09-09T05:02:02.646Z,1.10
2022-09-09T05:07:07.608Z,1.08
2022-09-09T05:12:12.113Z,0.90
2022-09-09T05:17:22.415Z,1.05
2022-09-09T05:22:25.955Z,0.90
2022-09-09T05:27:32.418Z,1.02
2022-09-09T05:32:38.293Z,1.02
2022-09-09T05:37:41.899Z,0.90
2022-09-09T05:42:45.548Z,1.10
2022-09-09T05:47:55.637Z,1.23
2022-09-09T05:53:00.132Z,1.05
2022-09-09T05:58:03.875Z,1.20
2022-09-09T06:03:08.922Z,1.20
2022-09-09T06:08:12.760Z,1.20
2022-09-09T06:13:16.308Z,1.10
2022-09-09T06:18:21.608Z,0.82
2022-09-09T06:23:25.727Z,1.00
2022-09-09T06:28:29.654Z,1.10
2022-09-09T06:33:37.626Z,1.20
2022-09-09T06:38:41.173Z,1.00
2022-09-09T06:43:45.022Z,1.00
2022-09-09T06:48:51.553Z,1.20
2022-09-09T06:53:58.002Z,1.10
2022-09-09T07:04:12.401Z,1.17
2022-09-09T07:09:19.095Z,1.40
2022-09-09T07:14:25.585Z,1.40
2022-09-09T07:19:37.932Z,1.50
2022-09-09T07:24:42.742Z,1.30
2022-09-09T07:29:46.670Z,1.60
2022-09-09T07:34:52.305Z,1.60
2022-09-09T07:39:56.211Z,1.50
2022-09-09T07:45:00.442Z,1.75
2022-09-09T07:50:06.690Z,1.30
2022-09-09T07:55:10.414Z,1.50
2022-09-09T08:00:17.138Z,1.23
2022-09-09T08:05:27.875Z,1.50
2022-09-09T08:10:32.319Z,1.25
2022-09-09T08:15:36.935Z,1.23
2022-09-09T08:20:43.254Z,1.13
2022-09-09T08:25:47.220Z,1.23
2022-09-09T08:30:52.210Z,1.20
2022-09-09T08:35:57.206Z,1.20
2022-09-09T08:41:52.741Z,1.35
2022-09-09T08:47:07.392Z,1.10
2022-09-09T08:52:19.826Z,1.10
2022-09-09T08:57:28.711Z,1.00
2022-09-09T09:02:47.081Z,1.05
2022-09-09T09:08:10.219Z,1.00
2022-09-09T09:13:22.581Z,1.10
2022-09-09T09:18:30.241Z,1.08
2022-09-09T09:23:47.732Z,1.10
2022-09-09T09:33:59.251Z,1.02
2022-09-09T09:44:38.175Z,1.27
2022-09-09T09:49:56.336Z,1.10
2022-09-09T09:55:08.169Z,1.10
2022-09-09T10:00:19.895Z,0.98
2022-09-09T10:05:36.311Z,0.90
2022-09-09T10:11:34.519Z,1.03
2022-09-09T10:17:01.719Z,1.00
2022-09-09T10:27:34.835Z,0.90
2022-09-09T10:32:52.222Z,1.00
2022-09-09T10:38:19.495Z,1.00
2022-09-09T10:49:08.733Z,1.00
2022-09-09T10:54:45.908Z,1.08
2022-09-09T11:05:11.214Z,1.00
2022-09-09T11:10:28.168Z,1.10
2022-09-09T11:15:41.926Z,0.93
2022-09-09T11:20:47.168Z,1.08
2022-09-09T11:25:56.914Z,0.98
2022-09-09T11:31:27.374Z,1.00
2022-09-09T11:37:07.924Z,0.95
2022-09-09T11:42:21.313Z,0.90
2022-09-09T11:47:32.381Z,1.17
2022-09-09T11:52:46.731Z,1.13
2022-09-09T11:57:50.172Z,0.98
2022-09-09T12:02:56.052Z,1.00
2022-09-09T12:08:01.594Z,0.90
2022-09-09T12:13:20.366Z,1.10
2022-09-09T12:18:28.232Z,1.00
2022-09-09T12:23:44.535Z,0.93
2022-09-09T12:29:07.816Z,1.10
2022-09-09T12:34:20.136Z,1.10
2022-09-09T12:39:34.877Z,0.90
2022-09-09T12:44:38.416Z,1.08
2022-09-09T12:49:44.726Z,0.80
2022-09-09T12:54:52.214Z,0.90
2022-09-09T13:00:12.438Z,1.10
2022-09-09T13:05:22.203Z,0.82
2022-09-09T13:10:36.718Z,0.90
2022-09-09T13:15:55.080Z,0.73
2022-09-09T13:21:01.097Z,1.17
2022-09-09T13:26:08.720Z,0.90
2022-09-09T13:31:28.096Z,0.90
2022-09-09T13:36:36.379Z,0.70
2022-09-09T13:41:47.337Z,0.80
2022-09-09T13:47:09.976Z,0.80
2022-09-09T13:52:18.977Z,0.80
2022-09-09T13:57:26.216Z,0.90
2022-09-09T14:02:29.790Z,0.70
2022-09-09T14:07:34.873Z,0.80
2022-09-09T14:12:38.377Z,0.90
2022-09-09T14:17:41.802Z,0.90
2022-09-09T14:22:46.971Z,0.85
2022-09-09T14:27:52.308Z,0.80
2022-09-09T14:32:55.728Z,0.70
2022-09-09T14:38:02.003Z,0.82
2022-09-09T14:43:06.962Z,0.85
2022-09-09T14:48:10.378Z,0.82
2022-09-09T14:53:15.170Z,0.70
2022-09-09T14:58:18.586Z,1.05
2022-09-09T15:03:23.044Z,0.80
2022-09-09T15:08:28.095Z,0.80
2022-09-09T15:13:31.847Z,0.68
2022-09-09T15:18:37.017Z,0.73
2022-09-09T15:23:42.027Z,0.93
2022-09-09T15:28:48.368Z,0.85
2022-09-09T15:33:54.664Z,0.90
2022-09-09T15:39:00.620Z,0.85
2022-09-09T15:44:04.768Z,0.80
2022-09-09T15:49:11.796Z,0.90
2022-09-09T15:54:21.785Z,1.00
2022-09-09T15:59:27.275Z,1.00
2022-09-09T16:04:32.173Z,1.65
2022-09-09T16:09:38.003Z,1.30
2022-09-09T16:14:41.794Z,1.10
2022-09-09T16:19:46.827Z,1.02
2022-09-09T16:24:51.889Z,1.10
2022-09-09T16:29:55.569Z,0.80
2022-09-09T16:34:59.021Z,0.80
2022-09-09T16:40:06.316Z,1.00
2022-09-09T16:45:11.561Z,0.90
2022-09-09T16:50:15.183Z,0.77
2022-09-09T16:55:21.459Z,1.30
2022-09-09T17:00:25.425Z,1.20
2022-09-09T17:05:28.942Z,1.10
2022-09-09T17:10:34.172Z,1.05
2022-09-09T17:15:43.842Z,1.10
2022-09-09T17:20:47.497Z,1.48
2022-09-09T17:26:00.979Z,1.02
2022-09-09T17:31:07.176Z,0.90
2022-09-09T17:36:14.468Z,1.10
2022-09-09T17:41:22.137Z,0.90
2022-09-09T17:46:29.346Z,1.00
2022-09-09T17:51:35.199Z,0.90
2022-09-09T17:56:42.205Z,0.80
2022-09-09T18:01:49.486Z,0.80
2022-09-09T18:06:55.674Z,0.90
2022-09-09T18:12:01.874Z,0.90
2022-09-09T18:17:06.293Z,1.05
2022-09-09T18:22:09.733Z,1.00
2022-09-09T18:27:14.543Z,1.10
2022-09-09T18:32:20.026Z,1.10
2022-09-09T18:37:23.502Z,0.90
2022-09-09T18:42:28.379Z,1.10
2022-09-09T18:47:31.822Z,0.90
2022-09-09T18:52:35.789Z,1.10
2022-09-09T18:57:41.324Z,1.08
2022-09-09T19:02:44.774Z,1.00
2022-09-09T19:07:48.294Z,1.00
2022-09-09T19:12:53.130Z,1.05
2022-09-09T19:17:56.938Z,1.20
2022-09-09T19:23:00.785Z,1.05
2022-09-09T19:28:06.120Z,0.73
2022-09-09T19:33:09.584Z,0.90
2022-09-09T19:38:13.049Z,1.00
2022-09-09T19:43:17.978Z,0.85
2022-09-09T19:48:21.718Z,0.90
2022-09-09T19:53:25.209Z,0.90
2022-09-09T19:58:30.596Z,0.95
2022-09-09T20:03:34.274Z,1.10
2022-09-09T20:08:40.191Z,1.00
2022-09-09T20:13:46.063Z,0.90
2022-09-09T20:18:52.664Z,0.95
2022-09-09T20:23:56.982Z,0.93
2022-09-09T20:29:04.801Z,0.90
2022-09-09T20:34:11.532Z,0.90
2022-09-09T20:39:18.193Z,0.80
2022-09-09T20:44:25.117Z,0.90
2022-09-09T20:49:30.264Z,0.77
2022-09-09T20:54:35.229Z,0.98
2022-09-09T20:59:41.558Z,0.80
2022-09-09T21:04:45.654Z,1.00
2022-09-09T21:09:49.141Z,0.73
2022-09-09T21:14:54.131Z,0.90
2022-09-09T21:19:57.627Z,0.80
2022-09-09T21:25:01.015Z,0.80
2022-09-09T21:30:07.246Z,0.70
2022-09-09T21:35:12.163Z,0.80
2022-09-09T21:46:14.333Z,0.77
2022-09-09T21:51:19.015Z,0.70
2022-09-09T21:56:23.669Z,0.85
2022-09-09T22:01:28.705Z,0.65
2022-09-09T22:06:32.373Z,0.60
2022-09-09T22:11:36.048Z,1.00
2022-09-09T22:16:41.004Z,0.70
2022-09-09T22:21:44.565Z,0.90
2022-09-09T22:26:48.386Z,0.80
2022-09-09T22:31:53.221Z,0.70
2022-09-09T22:36:57.017Z,0.70
2022-09-09T22:42:01.060Z,0.75
2022-09-09T22:47:06.464Z,0.73
2022-09-09T22:52:10.980Z,0.90
2022-09-09T22:57:14.537Z,0.80
2022-09-09T23:02:20.712Z,0.70
2022-09-09T23:07:24.230Z,0.80
2022-09-09T23:12:28.216Z,0.80
2022-09-09T23:17:34.413Z,0.73
2022-09-09T23:22:39.235Z,0.90
2022-09-09T23:27:42.855Z,0.68
2022-09-09T23:32:50.517Z,0.70
2022-09-09T23:37:54.273Z,0.80
2022-09-09T23:42:57.816Z,0.80
2022-09-09T23:48:03.532Z,0.70
2022-09-09T23:53:08.454Z,0.70
2022-09-09T23:58:12.338Z,0.80
